Buchans, Canada
Current Conditions -  °F | °C
As of 6:00 AM on Monday 24 Nov 2014 (Local Time) from CYDF Reporting Station
Few Clouds Few Clouds  
Wind Chill: 12°   Ceiling: Unl
Heat Index: 12°   Visibility: 15mi
Dew Point:   Wind: 2mph
Humidity: 85%   Direction: NA
Pressure: 30.23"   Gusts: NA
Location:  48.82°N, 56.87°W
Report Text: CYDF 240900Z VRB02KT 15SM FEW040 FEW240 M11/M13 A3023 RMK SC1CI1 SLP237
Loading
Personal Weather Stations






























Interactive Weather Map New forecast layout! Learn more

10-Day Weather Forecast

Advertisements
Track Severe Weather on mobile